Frankford, Delaware
Current Conditions -  °F | °C
As of 1:54 PM on Monday 20 Oct 2014 (Local Time) from KGED Reporting Station
Clear Clear  
Wind Chill: 65°   Ceiling: Unl
Heat Index: 65°   Visibility: 10mi
Dew Point: 43°   Wind: 15mph
Humidity: 45%   Direction: 190°S
Pressure: 30.05"   Gusts: 22mph
Location:  38.52°N, 75.23°W
Report Text: KGED 201754Z AUTO 19013G19KT 10SM CLR 18/06 A3005 RMK AO2 SLP175 T01830061 10194 20022 58040
Loading
Personal Weather Stations






























Interactive Weather Map
Tropical Storm Tracking
New forecast layout! Learn more

10-Day Weather Forecast

Advertisements
Track Severe Weather on mobile